University of Miami, Florida
Current Conditions -  °F | °C
As of 11:53 AM on Tuesday 27 Jan 2015 (Local Time) from KMIA Reporting Station
Few Clouds Few Clouds  
Wind Chill: 64°   Ceiling: Unl
Heat Index: 64°   Visibility: 10mi
Dew Point: 32°   Wind: 12mph
Humidity: 30%   Direction: 310°NW
Pressure: 30.08"   Gusts: NA
Location:  25.7207°N, 80.2732°W
Report Text: KMIA 271653Z 31010KT 10SM FEW010 18/00 A3008 RMK AO2 SLP184 FU FEW010 T01780000
Loading
Personal Weather Stations






























Interactive Weather Map New forecast layout! Learn more

10-Day Weather Forecast

Advertisements
Track Severe Weather on mobile